Time;durP1;ratioP1;P1;durP2;ratioP2;P2;SDS_P1;SDS_P2;PMS_P1;PMS_P2;Temp;Humidity;BMP_temperature;BMP_pressure;BME280_temperature;BME280_humidity;BME280_pressure;Samples;Min_cycle;Max_cycle;Signal;HPM_P1;HPM_P2
2021/06/06 00:02:06;;;;;;;18.27;6.05;;;14.60;99.90;;;;;;4974848;28;20049;-71
2021/06/06 00:04:32;;;;;;;15.07;5.15;;;14.60;99.90;;;;;;4974712;28;20102;-70
2021/06/06 00:06:58;;;;;;;20.77;5.03;;;14.60;99.90;;;;;;4973680;28;20027;-71
2021/06/06 00:09:23;;;;;;;17.13;4.57;;;14.60;99.90;;;;;;4974136;28;20035;-70
2021/06/06 00:11:54;;;;;;;17.02;5.05;;;14.60;99.90;;;;;;4974436;28;20039;-70
2021/06/06 00:14:33;;;;;;;19.70;5.15;;;14.60;99.90;;;;;;4977564;28;20034;-71
2021/06/06 00:17:03;;;;;;;13.43;5.10;;;14.60;99.90;;;;;;4973660;28;20026;-71
2021/06/06 00:19:29;;;;;;;17.60;5.47;;;14.60;99.90;;;;;;4975255;28;20236;-71
2021/06/06 00:21:56;;;;;;;22.52;5.82;;;14.60;99.90;;;;;;4975513;28;20147;-72
2021/06/06 00:24:26;;;;;;;20.95;8.07;;;14.60;99.90;;;;;;4974938;28;20039;-72
2021/06/06 00:26:52;;;;;;;14.10;6.30;;;14.60;99.90;;;;;;4974645;28;20035;-72
2021/06/06 00:29:19;;;;;;;17.42;7.15;;;14.60;99.90;;;;;;4975093;28;20034;-70
2021/06/06 00:31:45;;;;;;;18.20;6.90;;;14.60;99.90;;;;;;4975482;28;20109;-70
2021/06/06 00:34:11;;;;;;;17.30;6.70;;;14.70;99.90;;;;;;4975079;28;20030;-70
2021/06/06 00:36:37;;;;;;;19.33;7.22;;;14.70;99.90;;;;;;4975061;28;20039;-70
2021/06/06 00:39:03;;;;;;;20.08;7.40;;;14.60;99.90;;;;;;4989344;28;20047;-70
2021/06/06 00:41:30;;;;;;;26.83;9.32;;;14.60;99.90;;;;;;4975639;28;20030;-71
2021/06/06 00:43:57;;;;;;;22.77;8.73;;;14.70;99.90;;;;;;4974596;28;20538;-70
2021/06/06 00:46:27;;;;;;;19.95;8.07;;;14.60;99.90;;;;;;4969410;28;20058;-70
2021/06/06 00:48:54;;;;;;;27.50;8.38;;;14.60;99.90;;;;;;4962693;28;20082;-70
2021/06/06 00:51:35;;;;;;;23.80;9.18;;;14.60;99.90;;;;;;4965008;28;20042;-70
2021/06/06 00:54:13;;;;;;;23.75;8.25;;;14.60;99.90;;;;;;4963174;28;20070;-68
2021/06/06 00:56:39;;;;;;;22.02;6.93;;;14.60;99.90;;;;;;4964409;28;20043;-69
2021/06/06 00:59:05;;;;;;;15.38;6.05;;;14.60;99.90;;;;;;4966700;28;20125;-70
2021/06/06 01:02:11;;;;;;;13.88;5.28;;;14.50;99.90;;;;;;4967025;28;20407;-69
2021/06/06 01:05:13;;;;;;;12.98;4.55;;;14.50;99.90;;;;;;4963392;28;20042;-70
2021/06/06 01:07:39;;;;;;;11.80;4.60;;;14.50;99.90;;;;;;4964055;28;20055;-69
2021/06/06 01:10:07;;;;;;;12.43;3.78;;;14.50;99.90;;;;;;4967414;28;20031;-70
2021/06/06 01:12:37;;;;;;;9.32;4.25;;;14.60;99.90;;;;;;4967130;28;20069;-69
2021/06/06 01:15:11;;;;;;;13.77;5.03;;;14.50;99.90;;;;;;4963929;28;20031;-70
2021/06/06 01:17:45;;;;;;;12.10;4.63;;;14.50;99.90;;;;;;4966539;28;20042;-68
2021/06/06 01:20:28;;;;;;;10.50;4.32;;;14.40;99.90;;;;;;4966151;28;20065;-70
2021/06/06 01:23:21;;;;;;;17.10;4.80;;;14.50;99.90;;;;;;4965754;28;20035;-69
2021/06/06 01:25:50;;;;;;;13.13;5.38;;;14.50;99.90;;;;;;4965678;28;20495;-69
2021/06/06 01:28:47;;;;;;;12.35;4.65;;;14.50;99.90;;;;;;4965535;28;20399;-70
2021/06/06 01:31:15;;;;;;;12.20;5.00;;;14.40;99.90;;;;;;4959251;28;20034;-70
2021/06/06 01:33:47;;;;;;;14.07;5.45;;;14.40;99.90;;;;;;4973759;28;20053;-70
2021/06/06 01:36:27;;;;;;;15.05;5.00;;;14.40;99.90;;;;;;4967089;28;20499;-69
2021/06/06 01:39:00;;;;;;;16.98;5.70;;;14.40;99.90;;;;;;4966236;28;20412;-70
2021/06/06 01:41:35;;;;;;;16.05;5.55;;;14.40;99.90;;;;;;4981970;28;20027;-70
2021/06/06 01:44:04;;;;;;;12.60;5.18;;;14.40;99.90;;;;;;4963275;28;20043;-69
2021/06/06 01:46:37;;;;;;;13.45;5.57;;;14.40;99.90;;;;;;4961876;28;20034;-68
2021/06/06 01:49:05;;;;;;;16.27;6.10;;;14.40;99.90;;;;;;4977830;28;20031;-69
2021/06/06 01:51:38;;;;;;;18.33;6.63;;;14.40;99.90;;;;;;4965897;28;20031;-70
2021/06/06 01:54:08;;;;;;;19.52;6.18;;;14.40;99.90;;;;;;4966202;28;20031;-69
2021/06/06 01:56:36;;;;;;;16.92;6.75;;;14.40;99.90;;;;;;4966742;28;20118;-69
2021/06/06 01:59:06;;;;;;;14.43;6.20;;;14.30;99.90;;;;;;4965991;28;20877;-70
2021/06/06 02:01:32;;;;;;;13.73;6.20;;;14.40;99.90;;;;;;4966589;28;20030;-70
2021/06/06 02:03:59;;;;;;;14.00;6.50;;;14.40;99.90;;;;;;4966621;28;20089;-69
2021/06/06 02:06:42;;;;;;;14.75;5.85;;;14.40;99.90;;;;;;4966518;28;20042;-70
2021/06/06 02:09:11;;;;;;;17.10;5.60;;;14.40;99.90;;;;;;4964356;28;20121;-70
2021/06/06 02:11:49;;;;;;;14.77;5.95;;;14.40;99.90;;;;;;4966731;28;20097;-70
2021/06/06 02:14:19;;;;;;;16.05;6.20;;;14.40;99.90;;;;;;4968053;28;20026;-70
2021/06/06 02:16:49;;;;;;;19.25;7.45;;;14.30;99.90;;;;;;4968722;28;20514;-70
2021/06/06 02:19:15;;;;;;;15.88;6.05;;;14.30;99.90;;;;;;4969633;28;20042;-69
2021/06/06 02:21:41;;;;;;;17.15;7.00;;;14.40;99.90;;;;;;4970162;28;20422;-70
2021/06/06 02:24:07;;;;;;;21.33;7.97;;;14.40;99.90;;;;;;4969880;28;20558;-70
2021/06/06 02:26:50;;;;;;;25.55;8.60;;;14.40;99.90;;;;;;4969146;28;20097;-69
2021/06/06 02:29:38;;;;;;;20.63;8.55;;;14.40;99.90;;;;;;4984443;28;20031;-68
2021/06/06 02:32:31;;;;;;;21.83;8.52;;;14.30;99.90;;;;;;4984788;28;20783;-69
2021/06/06 02:35:14;;;;;;;21.98;9.18;;;14.40;99.90;;;;;;4966675;28;20058;-70
2021/06/06 02:37:47;;;;;;;24.77;10.15;;;14.30;99.90;;;;;;4967792;28;20073;-70
2021/06/06 02:40:39;;;;;;;29.33;10.07;;;14.30;99.90;;;;;;4970372;28;20432;-70
2021/06/06 02:43:18;;;;;;;26.50;9.50;;;14.30;99.90;;;;;;4982366;28;20841;-69
2021/06/06 02:45:44;;;;;;;26.63;9.20;;;14.30;99.90;;;;;;4969339;28;20031;-70
2021/06/06 02:48:15;;;;;;;26.27;8.85;;;14.30;99.90;;;;;;4980050;28;20082;-70
2021/06/06 02:50:43;;;;;;;19.88;7.68;;;14.30;99.90;;;;;;4969804;28;20050;-69
2021/06/06 02:53:22;;;;;;;24.30;8.07;;;14.30;99.90;;;;;;4965507;28;20030;-68
2021/06/06 02:55:52;;;;;;;20.85;7.75;;;14.30;99.90;;;;;;4983362;28;20657;-68
2021/06/06 02:58:31;;;;;;;16.95;6.03;;;14.20;99.90;;;;;;4969210;28;20042;-68
2021/06/06 03:01:00;;;;;;;18.05;6.75;;;14.20;99.90;;;;;;4968016;28;20062;-70
2021/06/06 03:03:33;;;;;;;14.73;6.25;;;14.20;99.90;;;;;;4968014;28;20395;-68
2021/06/06 03:06:02;;;;;;;20.33;6.93;;;14.30;99.90;;;;;;4961613;28;20035;-68
2021/06/06 03:08:27;;;;;;;18.40;6.82;;;14.30;99.90;;;;;;4970829;28;20062;-68
2021/06/06 03:10:54;;;;;;;17.98;7.28;;;14.20;99.90;;;;;;4969081;28;20492;-70
2021/06/06 03:13:33;;;;;;;17.88;6.38;;;14.20;99.90;;;;;;4969312;28;20058;-70
2021/06/06 03:16:01;;;;;;;21.08;6.53;;;14.30;99.90;;;;;;4964728;28;20498;-70
2021/06/06 03:18:34;;;;;;;12.77;6.30;;;14.20;99.90;;;;;;4968606;28;20045;-70
2021/06/06 03:21:17;;;;;;;11.93;5.78;;;14.20;99.90;;;;;;4968737;28;20054;-70
2021/06/06 03:23:48;;;;;;;14.30;6.00;;;14.20;99.90;;;;;;4969611;28;20122;-69
2021/06/06 03:26:14;;;;;;;14.05;5.72;;;14.30;99.90;;;;;;4968314;28;20106;-69
2021/06/06 03:28:42;;;;;;;12.85;5.13;;;14.30;99.90;;;;;;4967616;28;20042;-70
2021/06/06 03:31:16;;;;;;;12.43;4.47;;;14.30;99.90;;;;;;4967700;28;20035;-70
2021/06/06 03:33:55;;;;;;;9.60;4.78;;;14.30;99.90;;;;;;4969238;28;20042;-70
2021/06/06 03:36:31;;;;;;;17.40;5.22;;;14.30;99.90;;;;;;4964869;28;20038;-69
2021/06/06 03:38:57;;;;;;;9.30;5.10;;;14.30;99.90;;;;;;4965028;28;20078;-69
2021/06/06 03:41:25;;;;;;;11.95;5.32;;;14.30;99.90;;;;;;4960101;28;20038;-68
2021/06/06 03:43:51;;;;;;;13.30;5.38;;;14.30;99.90;;;;;;4964659;28;20043;-69
2021/06/06 03:46:18;;;;;;;10.85;4.80;;;14.30;99.90;;;;;;4968037;28;20403;-70
2021/06/06 03:48:44;;;;;;;11.60;4.72;;;14.30;99.90;;;;;;4965598;28;20093;-69
2021/06/06 03:51:10;;;;;;;12.98;5.35;;;14.30;99.90;;;;;;4967869;28;20035;-68
2021/06/06 03:53:36;;;;;;;11.68;4.82;;;14.30;99.90;;;;;;4964578;28;20097;-70
2021/06/06 03:56:04;;;;;;;12.05;5.20;;;14.30;99.90;;;;;;4967760;28;20075;-73
2021/06/06 03:58:30;;;;;;;8.60;4.57;;;14.40;99.90;;;;;;4961282;28;20407;-70
2021/06/06 04:00:56;;;;;;;9.32;4.30;;;14.40;99.90;;;;;;4967024;28;20023;-70
2021/06/06 04:03:21;;;;;;;7.55;4.07;;;14.30;99.90;;;;;;4968128;28;20515;-70
2021/06/06 04:05:48;;;;;;;8.45;3.83;;;14.30;99.90;;;;;;4967724;28;20314;-68
2021/06/06 04:08:15;;;;;;;7.03;3.70;;;14.30;99.90;;;;;;4967345;28;20391;-69
2021/06/06 04:10:41;;;;;;;8.98;3.97;;;14.30;99.90;;;;;;4966488;28;20049;-70
2021/06/06 04:13:08;;;;;;;12.52;4.50;;;14.30;99.90;;;;;;4967716;28;20022;-69
2021/06/06 04:15:33;;;;;;;6.20;3.65;;;14.30;99.90;;;;;;4965806;28;20038;-70
2021/06/06 04:18:09;;;;;;;7.63;3.75;;;14.30;99.90;;;;;;4967219;28;20923;-70
2021/06/06 04:20:35;;;;;;;11.90;4.20;;;14.30;99.90;;;;;;4967465;28;20244;-70
2021/06/06 04:23:00;;;;;;;11.32;4.43;;;14.30;99.90;;;;;;4966929;28;20070;-70
2021/06/06 04:25:27;;;;;;;16.35;4.63;;;14.30;99.90;;;;;;4967625;28;20042;-70
2021/06/06 04:27:52;;;;;;;9.10;4.45;;;14.30;99.90;;;;;;4967597;28;20509;-70
2021/06/06 04:30:18;;;;;;;6.93;4.18;;;14.20;99.90;;;;;;4967677;28;20027;-69
2021/06/06 04:32:43;;;;;;;8.75;3.72;;;14.20;99.90;;;;;;4968224;28;20039;-69
2021/06/06 04:35:10;;;;;;;10.55;4.43;;;14.10;99.90;;;;;;4967543;28;20103;-70
2021/06/06 04:37:35;;;;;;;8.68;4.55;;;14.10;99.90;;;;;;4966669;28;20046;-70
2021/06/06 04:40:03;;;;;;;7.78;4.00;;;14.00;99.90;;;;;;4967281;28;20082;-69
2021/06/06 04:42:29;;;;;;;12.15;4.80;;;14.10;99.90;;;;;;4981748;28;20058;-69
2021/06/06 04:44:55;;;;;;;9.50;4.72;;;14.10;99.90;;;;;;4967721;28;20092;-70
2021/06/06 04:47:20;;;;;;;9.02;4.50;;;14.10;99.90;;;;;;4967068;28;20039;-69
2021/06/06 04:49:48;;;;;;;9.23;4.28;;;14.10;99.90;;;;;;4978031;28;20039;-69
2021/06/06 04:52:15;;;;;;;11.05;4.30;;;14.00;99.90;;;;;;4963996;28;20031;-69
2021/06/06 04:54:41;;;;;;;8.68;4.07;;;14.10;99.90;;;;;;4981982;28;20093;-70
2021/06/06 04:57:07;;;;;;;7.45;4.22;;;14.20;99.90;;;;;;4981824;28;20386;-70
2021/06/06 04:59:36;;;;;;;8.30;4.13;;;14.30;99.90;;;;;;4966501;28;20495;-70
2021/06/06 05:02:09;;;;;;;7.25;4.60;;;14.30;99.90;;;;;;4967587;28;20081;-69
2021/06/06 05:04:34;;;;;;;8.95;4.28;;;14.30;99.90;;;;;;4981813;28;20031;-70
2021/06/06 05:07:00;;;;;;;10.32;4.15;;;14.40;99.90;;;;;;4967002;28;20042;-68
2021/06/06 05:09:26;;;;;;;10.38;4.30;;;14.40;99.90;;;;;;4966524;28;20049;-70
2021/06/06 05:11:51;;;;;;;10.73;3.83;;;14.50;99.90;;;;;;4966915;28;20068;-69
2021/06/06 05:14:17;;;;;;;11.88;3.70;;;14.50;99.90;;;;;;4965986;28;20722;-70
2021/06/06 05:16:43;;;;;;;10.48;4.03;;;14.50;99.90;;;;;;4966343;28;20062;-70
2021/06/06 05:19:08;;;;;;;7.75;3.63;;;14.60;99.90;;;;;;4966598;28;20141;-70
2021/06/06 05:21:34;;;;;;;9.23;4.40;;;14.60;99.90;;;;;;4965983;28;20042;-68
2021/06/06 05:24:00;;;;;;;8.45;3.92;;;14.70;99.90;;;;;;4965608;28;20468;-70
2021/06/06 05:26:26;;;;;;;9.98;4.88;;;14.70;99.90;;;;;;4964728;28;20226;-70
2021/06/06 05:28:51;;;;;;;11.52;5.43;;;14.80;99.90;;;;;;4964414;28;20034;-69
2021/06/06 05:31:18;;;;;;;10.13;5.47;;;14.70;99.90;;;;;;4966295;28;20615;-68
2021/06/06 05:33:44;;;;;;;15.55;6.90;;;14.70;99.90;;;;;;4966428;28;20082;-69
2021/06/06 05:36:11;;;;;;;12.90;6.88;;;14.80;99.90;;;;;;4966249;28;20039;-68
2021/06/06 05:38:37;;;;;;;19.05;8.35;;;15.00;99.90;;;;;;4965961;28;20081;-69
2021/06/06 05:41:05;;;;;;;20.02;7.88;;;15.20;99.90;;;;;;4966379;28;20154;-70
2021/06/06 05:43:31;;;;;;;15.48;7.63;;;15.50;99.90;;;;;;4966229;28;20512;-70
2021/06/06 05:45:57;;;;;;;16.85;6.40;;;15.70;99.90;;;;;;4964753;28;20054;-70
2021/06/06 05:48:25;;;;;;;14.30;6.65;;;15.80;99.90;;;;;;4966710;28;20133;-69
2021/06/06 05:50:54;;;;;;;11.88;5.03;;;16.10;99.90;;;;;;4969868;28;20035;-70
2021/06/06 05:53:19;;;;;;;9.32;4.57;;;16.30;99.90;;;;;;4967475;28;20497;-69
2021/06/06 05:55:45;;;;;;;7.18;3.47;;;16.70;99.90;;;;;;4970309;28;20034;-69
2021/06/06 05:58:12;;;;;;;6.63;3.85;;;17.10;99.90;;;;;;4970165;28;20058;-70
2021/06/06 06:00:41;;;;;;;9.27;4.55;;;17.40;99.90;;;;;;4970137;28;20031;-69
2021/06/06 06:03:08;;;;;;;7.13;3.80;;;17.60;99.90;;;;;;4970538;28;20411;-68
2021/06/06 06:05:34;;;;;;;14.35;5.78;;;17.70;99.90;;;;;;4969748;28;20031;-69
2021/06/06 06:08:26;;;;;;;11.27;5.38;;;17.60;99.90;;;;;;4969742;28;20395;-70
2021/06/06 06:10:53;;;;;;;8.95;4.78;;;17.50;99.90;;;;;;4967251;28;20035;-69
2021/06/06 06:13:20;;;;;;;12.63;5.25;;;17.30;99.90;;;;;;4962132;28;20031;-70
2021/06/06 06:15:46;;;;;;;10.15;4.70;;;17.30;99.90;;;;;;4967953;28;20089;-69
2021/06/06 06:18:13;;;;;;;14.63;5.80;;;17.30;99.90;;;;;;4969091;28;20035;-70
2021/06/06 06:20:39;;;;;;;12.52;6.25;;;17.40;99.90;;;;;;4969114;28;20039;-68
2021/06/06 06:23:05;;;;;;;15.27;7.30;;;17.30;99.90;;;;;;4969480;28;20030;-69
2021/06/06 06:25:31;;;;;;;16.80;6.93;;;17.10;99.90;;;;;;4968981;28;20031;-69
2021/06/06 06:27:57;;;;;;;19.02;7.28;;;17.00;99.90;;;;;;4968150;28;20042;-68
2021/06/06 06:30:27;;;;;;;18.67;7.90;;;17.00;99.90;;;;;;4964592;28;20043;-70
2021/06/06 06:32:53;;;;;;;17.65;7.10;;;17.10;99.90;;;;;;4983640;28;20129;-69
2021/06/06 06:35:19;;;;;;;19.90;7.45;;;16.90;99.90;;;;;;4968794;28;20430;-70
2021/06/06 06:37:45;;;;;;;12.95;6.82;;;16.90;99.90;;;;;;4966724;28;20031;-70
2021/06/06 06:40:13;;;;;;;11.95;6.53;;;17.20;99.90;;;;;;4968969;28;20042;-69
2021/06/06 06:42:39;;;;;;;15.45;7.30;;;17.20;99.90;;;;;;4968483;28;20031;-70
2021/06/06 06:45:06;;;;;;;21.17;7.28;;;17.80;99.90;;;;;;4970874;28;20027;-70
2021/06/06 06:47:32;;;;;;;13.35;6.18;;;18.40;99.90;;;;;;4970079;28;20069;-71
2021/06/06 06:49:58;;;;;;;12.60;6.07;;;19.10;99.90;;;;;;4966743;28;20062;-71
2021/06/06 06:52:24;;;;;;;11.98;5.93;;;20.40;99.90;;;;;;4962069;28;20652;-71
2021/06/06 06:54:49;;;;;;;10.95;5.22;;;21.50;99.90;;;;;;4969693;28;20463;-69
2021/06/06 06:57:15;;;;;;;10.93;5.22;;;22.10;99.90;;;;;;4969160;28;20038;-70
2021/06/06 06:59:40;;;;;;;8.50;4.70;;;23.30;99.90;;;;;;4968742;28;20047;-70
2021/06/06 07:02:07;;;;;;;8.65;5.13;;;24.60;99.30;;;;;;4969728;28;20051;-70
2021/06/06 07:04:33;;;;;;;12.68;6.53;;;25.90;96.10;;;;;;4971176;28;20138;-71
2021/06/06 07:06:59;;;;;;;12.45;7.10;;;26.90;91.00;;;;;;4970607;28;20039;-71
2021/06/06 07:09:26;;;;;;;10.80;6.45;;;27.40;85.80;;;;;;4969780;28;20038;-71
2021/06/06 07:11:54;;;;;;;10.02;6.68;;;27.80;80.60;;;;;;4970015;28;20905;-68
2021/06/06 07:14:19;;;;;;;8.65;6.38;;;28.50;76.50;;;;;;4969972;28;20551;-71
2021/06/06 07:16:46;;;;;;;10.75;7.18;;;28.90;72.70;;;;;;4969809;28;20126;-72
2021/06/06 07:19:12;;;;;;;9.35;6.32;;;29.30;67.40;;;;;;4968735;28;20031;-72
2021/06/06 07:21:37;;;;;;;9.30;6.38;;;29.40;65.80;;;;;;4969613;28;20117;-74
2021/06/06 07:24:04;;;;;;;11.52;6.45;;;29.50;63.80;;;;;;4969582;28;20049;-71
2021/06/06 07:26:35;;;;;;;10.40;6.18;;;29.70;62.90;;;;;;4969024;28;20757;-70
2021/06/06 07:29:09;;;;;;;8.48;5.85;;;29.60;62.90;;;;;;4968742;28;20065;-71
2021/06/06 07:31:35;;;;;;;9.15;6.35;;;29.70;59.40;;;;;;4969512;28;20038;-71
2021/06/06 07:34:00;;;;;;;11.48;6.03;;;30.10;59.60;;;;;;4968273;28;20035;-71
2021/06/06 07:36:26;;;;;;;8.75;6.40;;;30.30;59.50;;;;;;4968612;28;20073;-72
2021/06/06 07:38:52;;;;;;;8.38;6.00;;;30.90;58.30;;;;;;4967564;28;20141;-71
2021/06/06 07:41:19;;;;;;;11.02;7.18;;;30.80;57.40;;;;;;4968670;28;20065;-71
2021/06/06 07:43:45;;;;;;;8.93;5.80;;;30.70;56.50;;;;;;4968256;28;20053;-71
2021/06/06 07:46:13;;;;;;;8.18;6.63;;;30.60;56.70;;;;;;4968330;28;20034;-72
2021/06/06 07:48:38;;;;;;;10.57;6.15;;;30.80;56.00;;;;;;4968767;28;20058;-70
2021/06/06 07:51:04;;;;;;;6.80;5.07;;;30.40;55.90;;;;;;4967222;28;20031;-72
2021/06/06 07:53:30;;;;;;;5.70;3.92;;;30.70;56.20;;;;;;4968379;28;20042;-72
2021/06/06 07:55:57;;;;;;;6.97;3.45;;;30.90;54.90;;;;;;4968234;28;20149;-72
2021/06/06 07:58:29;;;;;;;6.00;3.50;;;31.00;54.10;;;;;;4968538;28;20569;-71
2021/06/06 08:00:55;;;;;;;4.65;2.80;;;30.80;53.90;;;;;;4969010;28;20101;-71
2021/06/06 08:03:21;;;;;;;6.25;2.97;;;30.90;53.20;;;;;;4968640;28;20038;-69
2021/06/06 08:05:48;;;;;;;6.82;2.92;;;30.90;53.80;;;;;;4968513;28;20069;-73
2021/06/06 08:08:14;;;;;;;5.20;2.70;;;30.90;54.30;;;;;;4967854;28;20030;-72
2021/06/06 08:10:44;;;;;;;4.40;2.25;;;30.40;53.50;;;;;;4968626;28;20403;-71
2021/06/06 08:13:10;;;;;;;5.63;2.83;;;30.20;53.60;;;;;;4967466;28;20039;-72
2021/06/06 08:15:36;;;;;;;6.43;2.67;;;30.00;53.60;;;;;;4966950;28;20046;-71
2021/06/06 08:18:07;;;;;;;3.60;2.00;;;30.10;53.70;;;;;;4967275;28;20031;-72
2021/06/06 08:20:46;;;;;;;5.68;2.55;;;30.20;53.50;;;;;;4968486;28;20035;-70
2021/06/06 08:23:12;;;;;;;3.67;2.38;;;30.10;53.50;;;;;;4964935;28;20103;-71
2021/06/06 08:25:39;;;;;;;4.18;2.40;;;30.40;53.40;;;;;;4968334;28;20153;-70
2021/06/06 08:28:06;;;;;;;7.28;2.67;;;30.50;52.90;;;;;;4963771;28;20084;-70
2021/06/06 08:30:36;;;;;;;4.22;2.50;;;30.70;52.00;;;;;;4968203;28;20019;-71
2021/06/06 08:33:03;;;;;;;4.82;2.40;;;30.30;52.10;;;;;;4968024;28;20023;-69
2021/06/06 08:35:28;;;;;;;5.15;2.00;;;30.20;52.50;;;;;;4974860;28;20027;-68
2021/06/06 08:37:54;;;;;;;2.70;2.20;;;29.90;52.20;;;;;;4967708;28;20112;-70
2021/06/06 08:40:38;;;;;;;3.50;2.00;;;29.70;51.40;;;;;;4982704;28;20035;-72
2021/06/06 08:43:06;;;;;;;4.70;2.00;;;29.40;53.00;;;;;;4967962;28;20093;-72
2021/06/06 08:45:51;;;;;;;3.58;1.77;;;29.40;53.10;;;;;;4968095;28;20054;-71
2021/06/06 08:48:19;;;;;;;2.25;1.65;;;29.60;52.20;;;;;;4960013;28;20035;-71
2021/06/06 08:50:49;;;;;;;3.35;1.88;;;29.50;50.60;;;;;;4964366;28;20082;-71
2021/06/06 08:53:44;;;;;;;2.28;1.50;;;29.10;52.10;;;;;;4962453;28;20047;-70
2021/06/06 08:56:22;;;;;;;3.22;1.65;;;28.90;52.80;;;;;;4960526;28;20035;-70
2021/06/06 08:59:06;;;;;;;5.22;1.77;;;28.70;52.40;;;;;;4967567;28;20074;-70
2021/06/06 09:02:07;;;;;;;2.13;1.50;;;28.50;52.60;;;;;;4978812;28;20053;-74
2021/06/06 09:04:34;;;;;;;4.43;1.45;;;28.20;52.90;;;;;;4964004;28;20388;-70
2021/06/06 09:07:12;;;;;;;2.08;1.25;;;27.70;53.50;;;;;;4968168;28;20039;-72
2021/06/06 09:09:42;;;;;;;3.80;1.20;;;27.30;53.90;;;;;;4967122;28;20677;-70
2021/06/06 09:12:12;;;;;;;3.22;1.15;;;27.00;54.70;;;;;;4966232;28;20129;-70
2021/06/06 09:14:39;;;;;;;2.10;1.17;;;26.80;55.30;;;;;;4967588;28;20547;-69
2021/06/06 09:17:10;;;;;;;5.55;1.20;;;26.50;55.80;;;;;;4967568;28;20034;-73
2021/06/06 09:19:43;;;;;;;2.45;1.35;;;26.30;56.00;;;;;;4966180;28;20050;-71
2021/06/06 09:22:10;;;;;;;3.58;1.30;;;25.90;57.30;;;;;;4967238;28;20042;-73
2021/06/06 09:24:41;;;;;;;2.78;1.30;;;25.60;58.00;;;;;;4971160;28;20035;-71
2021/06/06 09:27:22;;;;;;;3.47;1.50;;;25.40;58.80;;;;;;4971210;28;20043;-71
2021/06/06 09:30:12;;;;;;;2.95;1.65;;;25.20;59.50;;;;;;4970786;28;20523;-71
2021/06/06 09:32:38;;;;;;;2.40;1.27;;;25.30;60.60;;;;;;4956541;28;20580;-68
2021/06/06 09:35:19;;;;;;;2.15;1.10;;;25.40;60.00;;;;;;4965213;28;20069;-72
2021/06/06 09:37:50;;;;;;;5.47;1.65;;;25.20;58.80;;;;;;4968287;28;20043;-70
2021/06/06 09:40:29;;;;;;;3.25;1.00;;;25.10;59.10;;;;;;4971780;28;20027;-68
2021/06/06 09:42:55;;;;;;;5.72;1.70;;;25.00;60.10;;;;;;4972177;28;20093;-69
2021/06/06 09:45:32;;;;;;;4.03;1.35;;;24.90;60.50;;;;;;4970731;28;20442;-67
2021/06/06 09:48:16;;;;;;;1.50;1.00;;;24.70;61.20;;;;;;4970121;28;20039;-70
2021/06/06 09:50:45;;;;;;;4.15;1.60;;;24.60;60.50;;;;;;4970703;28;20503;-72
2021/06/06 09:53:23;;;;;;;2.70;0.88;;;24.50;61.00;;;;;;4963445;28;20054;-73
2021/06/06 09:55:49;;;;;;;1.40;0.90;;;24.40;58.40;;;;;;4968289;28;20042;-75
2021/06/06 09:58:24;;;;;;;7.25;2.42;;;24.30;60.00;;;;;;4967323;28;20059;-70
2021/06/06 10:00:52;;;;;;;5.47;1.10;;;24.30;60.50;;;;;;4967411;28;20062;-71
2021/06/06 10:03:40;;;;;;;2.67;1.00;;;24.10;60.60;;;;;;4965946;28;20027;-71
2021/06/06 10:06:13;;;;;;;2.40;0.93;;;24.20;63.00;;;;;;4967078;28;20043;-68
2021/06/06 10:08:40;;;;;;;1.40;0.60;;;24.30;59.20;;;;;;4970596;28;20125;-69
2021/06/06 10:11:15;;;;;;;2.30;0.70;;;24.30;60.30;;;;;;4967704;28;20219;-69
2021/06/06 10:13:45;;;;;;;5.78;0.90;;;24.20;59.90;;;;;;4971509;28;20035;-71
2021/06/06 10:16:15;;;;;;;2.45;1.15;;;24.10;59.50;;;;;;4970210;28;20042;-70
2021/06/06 10:18:52;;;;;;;1.75;0.52;;;24.20;60.60;;;;;;4969115;28;20045;-75
2021/06/06 10:21:23;;;;;;;2.90;1.08;;;24.00;58.20;;;;;;4968184;28;20042;-72
2021/06/06 10:23:58;;;;;;;1.35;0.63;;;24.10;59.30;;;;;;4979662;28;20035;-69
2021/06/06 10:26:32;;;;;;;1.50;0.80;;;24.10;60.60;;;;;;4966556;28;20515;-69
2021/06/06 10:29:04;;;;;;;2.50;0.85;;;24.10;60.70;;;;;;4969762;28;20042;-72
2021/06/06 10:31:35;;;;;;;1.33;0.60;;;24.20;58.30;;;;;;4962119;28;20034;-72
2021/06/06 10:34:21;;;;;;;3.28;0.85;;;24.20;59.10;;;;;;4962661;28;20034;-72
2021/06/06 10:36:47;;;;;;;2.92;1.13;;;24.20;60.90;;;;;;4968971;28;20038;-71
2021/06/06 10:39:19;;;;;;;3.70;1.08;;;24.30;61.70;;;;;;4972843;28;20034;-71
2021/06/06 10:42:18;;;;;;;3.47;1.45;;;24.30;59.30;;;;;;4973000;28;20045;-72
2021/06/06 10:44:56;;;;;;;2.90;0.70;;;24.20;59.60;;;;;;4964119;28;20530;-72
2021/06/06 10:47:36;;;;;;;1.95;0.90;;;24.10;58.40;;;;;;4969064;28;20414;-69
2021/06/06 10:50:30;;;;;;;1.60;0.70;;;24.10;58.70;;;;;;4965008;28;20031;-71
2021/06/06 10:53:07;;;;;;;2.72;0.90;;;24.10;59.00;;;;;;4969441;28;20034;-70
2021/06/06 10:55:36;;;;;;;1.05;0.50;;;24.20;57.50;;;;;;4969309;28;20484;-70
2021/06/06 10:58:33;;;;;;;3.25;0.80;;;24.10;58.50;;;;;;4965683;28;20042;-72
2021/06/06 11:01:04;;;;;;;2.92;0.63;;;24.00;56.10;;;;;;4967475;28;20056;-71
2021/06/06 11:03:35;;;;;;;1.67;0.30;;;23.70;56.80;;;;;;4969498;28;20082;-72
2021/06/06 11:06:05;;;;;;;1.77;0.45;;;23.60;56.30;;;;;;4967948;28;20034;-72
2021/06/06 11:08:31;;;;;;;2.20;0.63;;;23.60;56.60;;;;;;4969265;28;20523;-72
2021/06/06 11:11:29;;;;;;;1.63;0.22;;;23.60;57.00;;;;;;4968441;28;20101;-71
2021/06/06 11:14:08;;;;;;;2.08;0.47;;;23.60;54.30;;;;;;4969695;28;20443;-71
2021/06/06 11:16:42;;;;;;;3.45;0.73;;;23.60;55.20;;;;;;4968697;28;20050;-71
2021/06/06 11:19:18;;;;;;;1.00;0.50;;;23.60;56.40;;;;;;4965123;28;20058;-73
2021/06/06 11:21:51;;;;;;;2.70;0.40;;;23.60;56.00;;;;;;4967361;28;20034;-71
2021/06/06 11:24:25;;;;;;;5.15;1.15;;;23.50;57.00;;;;;;4968095;28;20157;-72
2021/06/06 11:27:15;;;;;;;2.03;0.60;;;23.50;59.00;;;;;;4967945;28;20144;-73
2021/06/06 11:29:47;;;;;;;2.08;0.55;;;23.60;59.40;;;;;;4967846;28;20070;-72
2021/06/06 11:32:13;;;;;;;1.17;0.28;;;23.70;59.50;;;;;;4967958;28;20499;-70
2021/06/06 11:34:42;;;;;;;2.40;0.50;;;23.60;57.50;;;;;;4969266;28;20479;-71
2021/06/06 11:37:28;;;;;;;2.97;0.38;;;23.60;58.20;;;;;;4969280;28;20555;-68
2021/06/06 11:39:57;;;;;;;1.20;0.20;;;23.50;57.00;;;;;;4968882;28;20075;-72
2021/06/06 11:42:22;;;;;;;1.42;0.17;;;23.40;57.50;;;;;;4965105;28;20985;-71
2021/06/06 11:45:00;;;;;;;3.25;0.40;;;23.30;57.80;;;;;;4968833;28;20044;-71
2021/06/06 11:47:52;;;;;;;1.55;0.20;;;23.30;56.30;;;;;;4968089;28;20039;-71
2021/06/06 11:50:37;;;;;;;1.13;0.22;;;23.30;55.50;;;;;;4968476;28;20041;-70
2021/06/06 11:53:23;;;;;;;1.08;0.30;;;23.30;57.50;;;;;;4964480;28;20027;-70
2021/06/06 11:55:51;;;;;;;1.88;0.40;;;23.30;58.50;;;;;;4968823;28;20058;-70
2021/06/06 11:58:21;;;;;;;0.82;0.38;;;23.30;58.80;;;;;;4967528;28;20030;-70
2021/06/06 12:01:01;;;;;;;2.10;0.32;;;23.20;58.90;;;;;;4964848;28;20031;-72
2021/06/06 12:03:47;;;;;;;0.90;0.30;;;23.20;58.30;;;;;;4961450;28;20125;-71
2021/06/06 12:06:26;;;;;;;1.08;0.20;;;23.10;59.60;;;;;;4966057;28;20082;-70
2021/06/06 12:08:58;;;;;;;0.77;0.23;;;23.10;59.20;;;;;;4964423;28;20023;-70
2021/06/06 12:11:30;;;;;;;2.25;0.20;;;23.00;59.90;;;;;;4964676;28;20039;-68
2021/06/06 12:14:16;;;;;;;2.55;0.40;;;23.00;59.80;;;;;;4983600;28;20073;-69
2021/06/06 12:16:53;;;;;;;1.33;0.30;;;23.00;60.00;;;;;;4968254;28;20120;-70
2021/06/06 12:19:25;;;;;;;2.28;0.30;;;22.80;59.40;;;;;;4967742;28;20047;-69
2021/06/06 12:22:08;;;;;;;2.63;0.45;;;22.80;59.80;;;;;;4983557;28;20046;-71
2021/06/06 12:24:33;;;;;;;4.65;0.50;;;22.80;59.40;;;;;;4964034;28;20134;-70
2021/06/06 12:27:13;;;;;;;0.68;0.20;;;22.80;59.60;;;;;;4968009;28;20174;-71
2021/06/06 12:29:51;;;;;;;0.60;0.30;;;22.70;59.80;;;;;;4967453;28;20577;-71
2021/06/06 12:32:25;;;;;;;0.63;0.10;;;22.70;61.00;;;;;;4967748;28;20680;-70
2021/06/06 12:34:52;;;;;;;1.45;0.22;;;22.80;58.30;;;;;;4963089;28;20033;-69
2021/06/06 12:37:23;;;;;;;2.28;0.55;;;23.00;57.10;;;;;;4968177;28;20125;-69
2021/06/06 12:39:51;;;;;;;0.75;0.20;;;23.00;58.00;;;;;;4967044;28;20496;-69
2021/06/06 12:42:17;;;;;;;3.50;0.45;;;22.90;59.10;;;;;;4967012;28;20069;-71
2021/06/06 12:44:50;;;;;;;3.17;0.25;;;22.80;59.90;;;;;;4967243;28;21352;-72
2021/06/06 12:47:35;;;;;;;3.80;1.00;;;22.70;58.60;;;;;;4969103;28;20620;-69
2021/06/06 12:50:16;;;;;;;0.80;0.28;;;22.60;59.20;;;;;;4965396;28;20077;-70
2021/06/06 12:52:41;;;;;;;;;;;22.70;60.50;;;;;;4964297;28;20090;-69
2021/06/06 12:55:16;;;;;;;0.88;0.22;;;22.60;60.90;;;;;;4968169;28;20326;-69
2021/06/06 12:57:51;;;;;;;2.47;0.57;;;22.70;62.10;;;;;;4966932;28;20035;-70
2021/06/06 13:00:28;;;;;;;0.82;0.30;;;22.70;61.00;;;;;;4963154;28;20126;-71
2021/06/06 13:02:54;;;;;;;1.75;0.50;;;22.80;60.90;;;;;;4967702;28;20043;-70
2021/06/06 13:05:41;;;;;;;0.68;0.20;;;22.80;61.60;;;;;;4967011;28;20477;-70